createdAt,value
2019-02-23T00:00:29.824Z,0.00
2019-02-23T00:01:29.759Z,0.00
2019-02-23T00:02:29.747Z,0.00
2019-02-23T00:03:29.737Z,0.00
2019-02-23T00:04:29.739Z,0.00
2019-02-23T00:05:29.774Z,0.00
2019-02-23T00:06:30.317Z,0.00
2019-02-23T00:07:29.696Z,0.00
2019-02-23T00:08:29.685Z,0.00
2019-02-23T00:09:29.673Z,0.00
2019-02-23T00:10:29.730Z,0.00
2019-02-23T00:11:29.650Z,0.00
2019-02-23T00:12:29.663Z,0.00
2019-02-23T00:13:29.628Z,0.00
2019-02-23T00:14:29.669Z,0.00
2019-02-23T00:15:29.610Z,0.00
2019-02-23T00:16:29.655Z,0.00
2019-02-23T00:17:29.584Z,0.00
2019-02-23T00:18:29.590Z,0.00
2019-02-23T00:19:29.568Z,0.00
2019-02-23T00:20:29.554Z,0.00
2019-02-23T00:21:29.589Z,0.00
2019-02-23T00:22:29.535Z,0.00
2019-02-23T00:23:29.536Z,0.00
2019-02-23T00:24:29.511Z,0.00
2019-02-23T00:25:29.549Z,0.00
2019-02-23T00:26:29.791Z,0.00
2019-02-23T00:27:29.488Z,0.00
2019-02-23T00:28:29.507Z,0.00
2019-02-23T00:29:29.465Z,0.00
2019-02-23T00:30:29.452Z,0.00
2019-02-23T00:31:29.509Z,0.00
2019-02-23T00:32:29.427Z,0.00
2019-02-23T00:33:29.417Z,0.00
2019-02-23T00:34:29.412Z,0.00
2019-02-23T00:35:29.402Z,0.00
2019-02-23T00:36:29.443Z,0.00
2019-02-23T00:37:29.371Z,0.00
2019-02-23T00:38:29.383Z,0.00
2019-02-23T00:39:29.352Z,0.00
2019-02-23T00:40:29.339Z,0.00
2019-02-23T00:41:29.373Z,0.00
2019-02-23T00:42:29.319Z,0.00
2019-02-23T00:43:29.307Z,0.00
2019-02-23T00:44:29.332Z,0.00
2019-02-23T00:45:29.290Z,0.00
2019-02-23T00:46:29.322Z,0.00
2019-02-23T00:47:29.801Z,0.00
2019-02-23T00:48:29.255Z,0.00
2019-02-23T00:49:36.301Z,0.00
2019-02-23T00:50:30.240Z,0.00
2019-02-23T00:51:29.264Z,0.00
2019-02-23T00:52:29.358Z,0.00
2019-02-23T00:53:29.200Z,0.00
2019-02-23T00:54:29.188Z,0.00
2019-02-23T00:55:29.184Z,0.00
2019-02-23T00:56:29.183Z,0.00
2019-02-23T00:57:29.220Z,0.00
2019-02-23T00:58:29.146Z,0.00
2019-02-23T00:59:29.136Z,0.00
2019-02-23T01:00:29.132Z,0.00
2019-02-23T01:01:29.116Z,0.00
2019-02-23T01:02:29.171Z,0.00
2019-02-23T01:03:29.093Z,0.00
2019-02-23T01:04:29.081Z,0.00
2019-02-23T01:05:29.073Z,0.00
2019-02-23T01:06:29.058Z,0.00
2019-02-23T01:07:29.103Z,0.00
2019-02-23T01:08:29.037Z,0.00
2019-02-23T01:09:29.088Z,0.00
2019-02-23T01:10:29.014Z,0.00
2019-02-23T01:11:29.003Z,0.00
2019-02-23T01:12:29.000Z,0.00
2019-02-23T01:13:29.000Z,0.00
2019-02-23T01:14:29.036Z,0.00
2019-02-23T01:15:28.962Z,0.00
2019-02-23T01:16:28.953Z,0.00
2019-02-23T01:17:28.946Z,0.00
2019-02-23T01:18:28.927Z,0.00
2019-02-23T01:19:28.958Z,0.00
2019-02-23T01:20:28.931Z,0.00
2019-02-23T01:21:28.896Z,0.00
2019-02-23T01:22:28.886Z,0.00
2019-02-23T01:23:28.875Z,0.00
2019-02-23T01:24:28.909Z,0.00
2019-02-23T01:25:28.852Z,0.00
2019-02-23T01:26:28.839Z,0.00
2019-02-23T01:27:28.890Z,0.00
2019-02-23T01:28:28.818Z,0.00
2019-02-23T01:29:28.807Z,0.00
2019-02-23T01:30:28.796Z,0.00
2019-02-23T01:31:28.784Z,0.00
2019-02-23T01:32:28.832Z,0.00
2019-02-23T01:33:28.780Z,0.00
2019-02-23T01:34:28.749Z,0.00
2019-02-23T01:35:28.739Z,0.00
2019-02-23T01:36:28.729Z,0.00
2019-02-23T01:37:28.784Z,0.00
2019-02-23T01:38:28.708Z,0.00
2019-02-23T01:39:28.701Z,0.00
2019-02-23T01:40:28.687Z,0.00
2019-02-23T01:41:28.675Z,0.00
2019-02-23T01:42:28.716Z,0.00
2019-02-23T01:43:28.653Z,0.00
2019-02-23T01:44:28.685Z,0.00
2019-02-23T01:45:28.645Z,0.00
2019-02-23T01:46:28.629Z,0.00
2019-02-23T01:47:28.609Z,0.00
2019-02-23T01:48:28.599Z,0.00
2019-02-23T01:49:28.639Z,0.00
2019-02-23T01:50:28.578Z,0.00
2019-02-23T01:51:28.581Z,0.00
2019-02-23T01:52:28.558Z,0.00
2019-02-23T01:53:28.550Z,0.00
2019-02-23T01:54:28.583Z,0.00
2019-02-23T01:55:28.526Z,0.00
2019-02-23T01:56:28.514Z,0.00
2019-02-23T01:57:28.567Z,0.00
2019-02-23T01:58:28.498Z,0.00
2019-02-23T01:59:28.560Z,0.00
2019-02-23T02:00:28.474Z,0.00
2019-02-23T02:01:28.462Z,0.00
2019-02-23T02:02:28.450Z,0.00
2019-02-23T02:03:28.505Z,0.00
2019-02-23T02:04:28.432Z,0.00
2019-02-23T02:05:28.416Z,0.00
2019-02-23T02:06:28.451Z,0.00
2019-02-23T02:07:28.398Z,0.00
2019-02-23T02:08:28.432Z,0.00
2019-02-23T02:09:28.395Z,0.00
2019-02-23T02:10:28.361Z,0.00
2019-02-23T02:11:28.350Z,0.00
2019-02-23T02:12:28.403Z,0.00
2019-02-23T02:13:28.327Z,0.00
2019-02-23T02:14:28.319Z,0.00
2019-02-23T02:15:28.326Z,0.00
2019-02-23T02:16:28.300Z,0.00
2019-02-23T02:17:28.347Z,0.00
2019-02-23T02:18:28.279Z,0.00
2019-02-23T02:19:28.264Z,0.00
2019-02-23T02:20:28.251Z,0.00
2019-02-23T02:21:28.250Z,0.00
2019-02-23T02:22:28.277Z,0.00
2019-02-23T02:23:28.224Z,0.00
2019-02-23T02:24:28.212Z,0.00
2019-02-23T02:25:28.199Z,0.00
2019-02-23T02:26:28.233Z,0.00
2019-02-23T02:27:28.188Z,0.00
2019-02-23T02:28:28.175Z,0.00
2019-02-23T02:29:28.202Z,0.00
2019-02-23T02:30:28.152Z,0.00
2019-02-23T02:31:28.188Z,0.00
2019-02-23T02:32:28.120Z,0.00
2019-02-23T02:33:28.127Z,0.00
2019-02-23T02:34:28.110Z,0.00
2019-02-23T02:35:28.089Z,0.00
2019-02-23T02:36:28.126Z,0.00
2019-02-23T02:37:28.071Z,0.00
2019-02-23T02:38:28.059Z,0.00
2019-02-23T02:39:28.057Z,0.00
2019-02-23T02:40:28.086Z,0.00
2019-02-23T02:41:28.035Z,0.00
2019-02-23T02:42:28.062Z,0.00
2019-02-23T02:43:28.002Z,0.00
2019-02-23T02:44:28.001Z,0.00
2019-02-23T02:45:28.033Z,0.00
2019-02-23T02:46:27.984Z,0.00
2019-02-23T02:47:28.023Z,0.00
2019-02-23T02:48:27.950Z,0.00
2019-02-23T02:49:27.936Z,0.00
2019-02-23T02:50:27.931Z,0.00
2019-02-23T02:51:27.919Z,0.00
2019-02-23T02:52:27.972Z,0.00
2019-02-23T02:53:28.242Z,0.00
2019-02-23T02:54:27.936Z,0.00
2019-02-23T02:55:27.928Z,0.00
2019-02-23T02:56:27.864Z,0.00
2019-02-23T02:57:27.853Z,0.00
2019-02-23T02:58:27.867Z,0.00
2019-02-23T02:59:27.831Z,0.00
2019-02-23T03:00:27.867Z,0.00
2019-02-23T03:01:27.822Z,0.00
2019-02-23T03:02:27.796Z,0.00
2019-02-23T03:03:27.841Z,0.00
2019-02-23T03:04:27.799Z,0.00
2019-02-23T03:05:27.776Z,0.00
2019-02-23T03:06:27.759Z,0.00
2019-02-23T03:07:27.752Z,0.00
2019-02-23T03:08:27.789Z,0.00
2019-02-23T03:09:28.230Z,0.00
2019-02-23T03:10:27.761Z,0.00
2019-02-23T03:11:27.740Z,0.00
2019-02-23T03:12:27.702Z,0.00
2019-02-23T03:13:27.685Z,0.00
2019-02-23T03:14:27.724Z,0.00
2019-02-23T03:15:27.700Z,0.00
2019-02-23T03:16:27.666Z,0.00
2019-02-23T03:17:27.641Z,0.00
2019-02-23T03:18:27.636Z,0.00
2019-02-23T03:19:27.684Z,0.00
2019-02-23T03:20:36.367Z,0.00
2019-02-23T03:21:28.605Z,0.00
2019-02-23T03:22:27.607Z,0.00
2019-02-23T03:23:27.578Z,0.00
2019-02-23T03:24:27.567Z,0.00
2019-02-23T03:25:27.616Z,0.00
2019-02-23T03:26:27.553Z,0.00
2019-02-23T03:27:27.535Z,0.00
2019-02-23T03:28:27.561Z,0.00
2019-02-23T03:29:27.513Z,0.00
2019-02-23T03:30:27.556Z,0.00
2019-02-23T03:31:27.494Z,0.00
2019-02-23T03:32:27.492Z,0.00
2019-02-23T03:33:27.493Z,0.00
2019-02-23T03:34:27.464Z,0.00
2019-02-23T03:35:27.530Z,0.00
2019-02-23T03:36:27.444Z,0.00
2019-02-23T03:37:27.434Z,0.00
2019-02-23T03:38:27.422Z,0.00
2019-02-23T03:39:27.413Z,0.00
2019-02-23T03:40:27.446Z,0.00
2019-02-23T03:41:27.757Z,0.00
2019-02-23T03:42:27.381Z,0.00
2019-02-23T03:43:27.372Z,0.00
2019-02-23T03:44:27.369Z,0.00
2019-02-23T03:45:27.351Z,0.00
2019-02-23T03:46:27.396Z,0.00
2019-02-23T03:47:27.330Z,0.00
2019-02-23T03:48:27.314Z,0.00
2019-02-23T03:49:27.329Z,0.00
2019-02-23T03:50:27.299Z,0.00
2019-02-23T03:51:27.346Z,0.00
2019-02-23T03:52:27.274Z,0.00
2019-02-23T03:53:27.264Z,0.00
2019-02-23T03:54:27.253Z,0.00
2019-02-23T03:55:27.253Z,0.00
2019-02-23T03:56:27.275Z,0.00
2019-02-23T03:57:27.224Z,0.00
2019-02-23T03:58:27.268Z,0.00
2019-02-23T03:59:27.202Z,0.00
2019-02-23T04:00:27.196Z,0.00
2019-02-23T04:01:27.235Z,0.00
2019-02-23T04:02:27.174Z,0.00
2019-02-23T04:03:27.210Z,0.00
2019-02-23T04:04:27.151Z,0.00
2019-02-23T04:05:27.139Z,0.00
2019-02-23T04:06:27.132Z,0.00
2019-02-23T04:07:27.188Z,0.00
2019-02-23T04:08:27.113Z,0.00
2019-02-23T04:09:27.096Z,0.00
2019-02-23T04:10:27.093Z,0.00
2019-02-23T04:11:27.079Z,0.00
2019-02-23T04:12:27.122Z,0.00
2019-02-23T04:13:27.069Z,0.00
2019-02-23T04:14:27.052Z,0.00
2019-02-23T04:15:27.037Z,0.00
2019-02-23T04:16:27.028Z,0.00
2019-02-23T04:17:27.096Z,0.00
2019-02-23T04:18:27.005Z,0.00
2019-02-23T04:19:27.013Z,0.00
2019-02-23T04:20:26.997Z,0.00
2019-02-23T04:21:26.974Z,0.00
2019-02-23T04:22:27.022Z,0.00
2019-02-23T04:23:26.949Z,0.00
2019-02-23T04:24:26.960Z,0.00
2019-02-23T04:25:26.987Z,0.00
2019-02-23T04:26:26.927Z,0.00
2019-02-23T04:27:26.965Z,0.00
2019-02-23T04:28:26.896Z,0.00
2019-02-23T04:29:26.891Z,0.00
2019-02-23T04:30:26.880Z,0.00
2019-02-23T04:31:26.887Z,0.00
2019-02-23T04:32:26.914Z,0.00
2019-02-23T04:33:26.849Z,0.00
2019-02-23T04:34:26.885Z,0.00
2019-02-23T04:35:26.824Z,0.00
2019-02-23T04:36:26.821Z,0.00
2019-02-23T04:37:26.807Z,0.00
2019-02-23T04:38:26.871Z,0.00
2019-02-23T04:39:26.785Z,0.00
2019-02-23T04:40:26.775Z,0.00
2019-02-23T04:41:26.856Z,0.00
2019-02-23T04:42:26.751Z,0.00
2019-02-23T04:43:26.807Z,0.00
2019-02-23T04:44:26.736Z,0.00
2019-02-23T04:45:26.741Z,0.00
2019-02-23T04:46:26.728Z,0.00
2019-02-23T04:47:26.701Z,0.00
2019-02-23T04:48:26.739Z,0.00
2019-02-23T04:49:26.702Z,0.00
2019-02-23T04:50:26.676Z,0.00
2019-02-23T04:51:26.705Z,0.00
2019-02-23T04:52:26.658Z,0.00
2019-02-23T04:53:26.642Z,0.00
2019-02-23T04:54:26.626Z,0.00
2019-02-23T04:55:26.691Z,0.00
2019-02-23T04:56:26.688Z,0.00
2019-02-23T04:57:26.601Z,0.00
2019-02-23T04:58:26.584Z,0.00
2019-02-23T04:59:26.576Z,0.00
2019-02-23T05:00:26.653Z,0.00
2019-02-23T05:01:26.615Z,0.00
2019-02-23T05:02:26.542Z,0.00
2019-02-23T05:03:26.549Z,0.00
2019-02-23T05:04:26.523Z,0.00
2019-02-23T05:05:26.516Z,0.00
2019-02-23T05:06:26.717Z,0.00
2019-02-23T05:07:26.688Z,0.00
2019-02-23T05:08:26.492Z,0.00
2019-02-23T05:09:26.468Z,0.00
2019-02-23T05:10:26.491Z,0.00
2019-02-23T05:11:26.453Z,0.00
2019-02-23T05:12:26.525Z,0.00
2019-02-23T05:13:26.425Z,0.00
2019-02-23T05:14:26.416Z,0.00
2019-02-23T05:15:26.441Z,0.00
2019-02-23T05:16:26.441Z,0.00
2019-02-23T05:17:26.447Z,0.00
2019-02-23T05:18:26.379Z,0.00
2019-02-23T05:19:26.364Z,0.00
2019-02-23T05:20:26.364Z,0.00
2019-02-23T05:21:27.066Z,0.00
2019-02-23T05:22:26.386Z,0.00
2019-02-23T05:23:26.330Z,0.00
2019-02-23T05:24:26.310Z,0.00
2019-02-23T05:25:26.306Z,0.00
2019-02-23T05:26:26.302Z,0.00
2019-02-23T05:27:26.365Z,0.00
2019-02-23T05:28:26.279Z,0.00
2019-02-23T05:29:26.455Z,0.00
2019-02-23T05:30:26.245Z,0.00
2019-02-23T05:31:27.115Z,0.00
2019-02-23T05:32:26.276Z,0.00
2019-02-23T05:33:26.224Z,0.00
2019-02-23T05:34:26.261Z,0.00
2019-02-23T05:35:26.198Z,0.00
2019-02-23T05:36:26.190Z,0.00
2019-02-23T05:37:26.266Z,0.00
2019-02-23T05:38:26.166Z,0.00
2019-02-23T05:39:26.162Z,0.00
2019-02-23T05:40:26.144Z,0.00
2019-02-23T05:41:26.147Z,0.00
2019-02-23T05:42:27.234Z,0.00
2019-02-23T05:43:26.117Z,0.00
2019-02-23T05:44:26.185Z,0.00
2019-02-23T05:45:26.091Z,0.00
2019-02-23T05:46:26.077Z,0.00
2019-02-23T05:47:26.076Z,0.00
2019-02-23T05:48:26.122Z,0.00
2019-02-23T05:49:26.179Z,0.00
2019-02-23T05:50:26.053Z,0.00
2019-02-23T05:51:38.070Z,0.00
2019-02-23T05:52:27.013Z,0.00
2019-02-23T05:53:26.065Z,0.00
2019-02-23T05:54:26.172Z,0.00
2019-02-23T05:55:25.988Z,0.00
2019-02-23T05:56:25.976Z,0.00
2019-02-23T05:57:25.957Z,0.00
2019-02-23T05:58:25.952Z,0.00
2019-02-23T05:59:26.034Z,0.00
2019-02-23T06:00:25.933Z,0.00
2019-02-23T06:01:25.936Z,5.62
2019-02-23T06:02:25.923Z,5.62
2019-02-23T06:03:25.995Z,5.62
2019-02-23T06:04:25.946Z,5.62
2019-02-23T06:05:26.104Z,5.62
2019-02-23T06:06:25.875Z,11.25
2019-02-23T06:07:25.867Z,11.25
2019-02-23T06:08:25.881Z,11.25
2019-02-23T06:09:25.894Z,11.25
2019-02-23T06:10:26.223Z,16.88
2019-02-23T06:11:25.829Z,16.88
2019-02-23T06:12:25.804Z,16.88
2019-02-23T06:13:25.811Z,22.50
2019-02-23T06:14:25.791Z,22.50
2019-02-23T06:15:25.825Z,22.50
2019-02-23T06:16:25.773Z,28.12
2019-02-23T06:17:25.755Z,28.12
2019-02-23T06:18:25.755Z,28.12
2019-02-23T06:19:25.750Z,33.75
2019-02-23T06:20:25.778Z,33.75
2019-02-23T06:21:25.712Z,39.38
2019-02-23T06:22:25.721Z,39.38
2019-02-23T06:23:26.705Z,45.00
2019-02-23T06:24:25.730Z,45.00
2019-02-23T06:25:25.745Z,45.00
2019-02-23T06:26:25.693Z,50.62
2019-02-23T06:27:25.704Z,50.62
2019-02-23T06:28:25.646Z,56.25
2019-02-23T06:29:25.664Z,56.25
2019-02-23T06:30:25.624Z,61.88
2019-02-23T06:31:25.635Z,61.88
2019-02-23T06:32:25.684Z,67.50
2019-02-23T06:33:25.585Z,67.50
2019-02-23T06:34:25.575Z,73.12
2019-02-23T06:35:25.571Z,73.12
2019-02-23T06:36:25.568Z,73.12
2019-02-23T06:37:25.595Z,78.75
2019-02-23T06:38:25.539Z,78.75
2019-02-23T06:39:25.539Z,84.38
2019-02-23T06:40:25.563Z,84.38
2019-02-23T06:41:25.503Z,90.00
2019-02-23T06:42:25.632Z,90.00
2019-02-23T06:43:25.498Z,95.62
2019-02-23T06:44:25.466Z,95.62
2019-02-23T06:45:25.460Z,95.62
2019-02-23T06:46:25.538Z,101.25
2019-02-23T06:47:25.487Z,101.25
2019-02-23T06:48:25.431Z,106.88
2019-02-23T06:49:25.433Z,106.88
2019-02-23T06:50:25.409Z,112.50
2019-02-23T06:51:25.466Z,112.50
2019-02-23T06:52:25.469Z,112.50
2019-02-23T06:53:25.372Z,118.12
2019-02-23T06:54:25.389Z,118.12
2019-02-23T06:55:25.356Z,123.75
2019-02-23T06:56:25.347Z,123.75
2019-02-23T06:57:25.416Z,123.75
2019-02-23T06:58:25.321Z,129.38
2019-02-23T06:59:25.312Z,129.38
2019-02-23T07:00:25.357Z,129.38
2019-02-23T07:01:25.360Z,135.00
2019-02-23T07:02:25.350Z,135.00
2019-02-23T07:03:25.297Z,135.00
2019-02-23T07:04:25.265Z,140.62
2019-02-23T07:05:25.251Z,140.62
2019-02-23T07:06:25.236Z,146.25
2019-02-23T07:07:25.304Z,146.25
2019-02-23T07:08:25.254Z,146.25
2019-02-23T07:09:25.229Z,151.88
2019-02-23T07:10:25.197Z,151.88
2019-02-23T07:11:25.201Z,151.88
2019-02-23T07:12:25.237Z,157.50
2019-02-23T07:13:25.161Z,157.50
2019-02-23T07:14:26.088Z,157.50
2019-02-23T07:15:25.169Z,163.12
2019-02-23T07:16:25.125Z,163.12
2019-02-23T07:17:25.192Z,163.12
2019-02-23T07:18:25.111Z,168.75
2019-02-23T07:19:25.176Z,168.75
2019-02-23T07:20:26.410Z,174.38
2019-02-23T07:21:25.100Z,174.38
2019-02-23T07:22:25.359Z,174.38
2019-02-23T07:23:25.233Z,180.00
2019-02-23T07:24:25.058Z,180.00
2019-02-23T07:25:25.037Z,180.00
2019-02-23T07:26:25.031Z,185.62
2019-02-23T07:27:25.066Z,185.62
2019-02-23T07:28:25.116Z,185.62
2019-02-23T07:29:25.062Z,191.25
2019-02-23T07:30:25.013Z,191.25
2019-02-23T07:31:24.989Z,191.25
2019-02-23T07:32:25.022Z,196.88
2019-02-23T07:33:32.942Z,196.88
2019-02-23T07:34:25.953Z,196.88
2019-02-23T07:35:24.939Z,202.50
2019-02-23T07:36:25.143Z,202.50
2019-02-23T07:37:24.954Z,202.50
2019-02-23T07:38:24.897Z,208.12
2019-02-23T07:39:24.922Z,208.12
2019-02-23T07:40:24.884Z,208.12
2019-02-23T07:41:24.917Z,213.75
2019-02-23T07:42:24.925Z,213.75
2019-02-23T07:43:24.890Z,213.75
2019-02-23T07:44:24.838Z,219.38
2019-02-23T07:45:24.831Z,219.38
2019-02-23T07:46:24.868Z,219.38
2019-02-23T07:47:24.865Z,225.00
2019-02-23T07:48:24.798Z,225.00
2019-02-23T07:49:24.812Z,230.62
2019-02-23T07:50:25.780Z,421.88
2019-02-23T07:51:24.800Z,680.62
2019-02-23T07:52:26.650Z,826.88
2019-02-23T07:53:24.747Z,916.88
2019-02-23T07:54:24.732Z,995.62
2019-02-23T07:55:24.723Z,1102.50
2019-02-23T07:56:24.716Z,1108.12
2019-02-23T07:57:24.779Z,1085.62
2019-02-23T07:58:24.700Z,1085.62
2019-02-23T07:59:24.698Z,1080.00
2019-02-23T08:00:25.574Z,1085.62
2019-02-23T08:01:24.669Z,1102.50
2019-02-23T08:02:25.892Z,1113.75
2019-02-23T08:03:24.649Z,1147.50
2019-02-23T08:04:24.683Z,1158.75
2019-02-23T08:05:25.556Z,1209.38
2019-02-23T08:06:24.607Z,1372.50
2019-02-23T08:07:24.671Z,1698.75
2019-02-23T08:08:24.601Z,2086.88
2019-02-23T08:09:24.591Z,2351.25
2019-02-23T08:10:24.558Z,1985.62
2019-02-23T08:11:24.551Z,1755.00
2019-02-23T08:12:24.599Z,1676.25
2019-02-23T08:13:24.523Z,1743.75
2019-02-23T08:14:24.586Z,1884.38
2019-02-23T08:15:24.553Z,2053.12
2019-02-23T08:16:24.494Z,2216.25
2019-02-23T08:17:24.584Z,2261.25
2019-02-23T08:18:24.484Z,2086.88
2019-02-23T08:19:24.527Z,2047.50
2019-02-23T08:20:24.451Z,2086.88
2019-02-23T08:21:24.566Z,1884.38
2019-02-23T08:22:24.705Z,1940.62
2019-02-23T08:23:24.432Z,1957.50
2019-02-23T08:24:24.728Z,2058.75
2019-02-23T08:25:24.390Z,2064.38
2019-02-23T08:26:24.383Z,1991.25
2019-02-23T08:27:24.991Z,1968.75
2019-02-23T08:28:24.373Z,2143.12
2019-02-23T08:29:24.433Z,2244.38
2019-02-23T08:30:24.337Z,2750.62
2019-02-23T08:31:24.337Z,3211.88
2019-02-23T08:32:24.384Z,3408.75
2019-02-23T08:33:24.308Z,3313.12
2019-02-23T08:34:24.304Z,2750.62
2019-02-23T08:35:24.285Z,2778.75
2019-02-23T08:36:24.275Z,2536.88
2019-02-23T08:37:25.070Z,2660.62
2019-02-23T08:38:24.310Z,2677.50
2019-02-23T08:39:24.249Z,2559.38
2019-02-23T08:40:24.240Z,2553.75
2019-02-23T08:41:24.247Z,2131.88
2019-02-23T08:42:24.262Z,2193.75
2019-02-23T08:43:24.200Z,2351.25
2019-02-23T08:44:24.187Z,2570.62
2019-02-23T08:45:24.175Z,2688.75
2019-02-23T08:46:24.212Z,2430.00
2019-02-23T08:47:24.221Z,2283.75
2019-02-23T08:48:24.155Z,2345.62
2019-02-23T08:49:24.156Z,2289.38
2019-02-23T08:50:24.122Z,2430.00
2019-02-23T08:51:24.123Z,2728.12
2019-02-23T08:52:24.159Z,2745.00
2019-02-23T08:53:24.095Z,2638.12
2019-02-23T08:54:24.081Z,2722.50
2019-02-23T08:55:24.109Z,2705.62
2019-02-23T08:56:35.187Z,2851.88
2019-02-23T08:57:24.163Z,2880.00
2019-02-23T08:58:24.054Z,2829.38
2019-02-23T08:59:24.035Z,2868.75
2019-02-23T09:00:24.032Z,2846.25
2019-02-23T09:01:24.128Z,2700.00
2019-02-23T09:02:24.145Z,2711.25
2019-02-23T09:03:23.991Z,2778.75
2019-02-23T09:04:26.760Z,2851.88
2019-02-23T09:05:24.039Z,3195.00
2019-02-23T09:06:23.972Z,2919.38
2019-02-23T09:07:24.030Z,2818.12
2019-02-23T09:08:23.955Z,2761.88
2019-02-23T09:09:23.986Z,2666.25
2019-02-23T09:10:23.926Z,2722.50
2019-02-23T09:11:23.919Z,2722.50
2019-02-23T09:12:23.953Z,2801.25
2019-02-23T09:13:23.872Z,2790.00
2019-02-23T09:14:23.867Z,2829.38
2019-02-23T09:15:23.946Z,2773.12
2019-02-23T09:16:23.842Z,3082.50
2019-02-23T09:17:23.826Z,3020.62
2019-02-23T09:18:23.871Z,2880.00
2019-02-23T09:19:23.828Z,2998.12
2019-02-23T09:20:29.246Z,3015.00
2019-02-23T09:21:24.791Z,2936.25
2019-02-23T09:22:23.796Z,3037.50
2019-02-23T09:23:23.828Z,2981.25
2019-02-23T09:24:23.762Z,2761.88
2019-02-23T09:25:23.749Z,3166.88
2019-02-23T09:26:23.733Z,3195.00
2019-02-23T09:27:23.777Z,3301.88
2019-02-23T09:28:23.713Z,3211.88
2019-02-23T09:29:23.700Z,3110.62
2019-02-23T09:30:23.728Z,3262.50
2019-02-23T09:31:23.698Z,3082.50
2019-02-23T09:32:23.734Z,3268.12
2019-02-23T09:33:23.667Z,3217.50
2019-02-23T09:34:23.639Z,3189.38
2019-02-23T09:35:23.645Z,3105.00
2019-02-23T09:36:23.628Z,3015.00
2019-02-23T09:37:23.666Z,3133.12
2019-02-23T09:38:23.612Z,3307.50
2019-02-23T09:39:34.707Z,3290.62
2019-02-23T09:40:23.609Z,3076.88
2019-02-23T09:41:23.575Z,2930.62
2019-02-23T09:42:23.590Z,3076.88
2019-02-23T09:43:23.599Z,3330.00
2019-02-23T09:44:23.578Z,3183.75
2019-02-23T09:45:23.528Z,3172.50
2019-02-23T09:46:23.514Z,3195.00
2019-02-23T09:47:23.507Z,3189.38
2019-02-23T09:48:23.531Z,3195.00
2019-02-23T09:49:23.476Z,3065.62
2019-02-23T09:50:23.512Z,3099.38
2019-02-23T09:51:23.494Z,3279.38
2019-02-23T09:52:23.444Z,3476.25
2019-02-23T09:53:23.468Z,3459.38
2019-02-23T09:54:23.419Z,3121.88
2019-02-23T09:55:23.408Z,3217.50
2019-02-23T09:56:23.419Z,3296.25
2019-02-23T09:57:23.382Z,3346.88
2019-02-23T09:58:23.381Z,3448.12
2019-02-23T09:59:23.417Z,3228.75
2019-02-23T10:00:23.389Z,3195.00
2019-02-23T10:01:23.347Z,3200.62
2019-02-23T10:02:23.341Z,3375.00
2019-02-23T10:03:23.321Z,3256.88
2019-02-23T10:04:23.358Z,3391.88
2019-02-23T10:05:23.354Z,3459.38
2019-02-23T10:06:23.312Z,3600.00
2019-02-23T10:07:23.278Z,4005.00
2019-02-23T10:08:23.266Z,3847.50
2019-02-23T10:09:23.260Z,3459.38
2019-02-23T10:10:23.256Z,3285.00
2019-02-23T10:11:23.585Z,3375.00
2019-02-23T10:12:23.231Z,3706.88
2019-02-23T10:13:23.217Z,3695.62
2019-02-23T10:14:23.197Z,3493.12
2019-02-23T10:15:23.191Z,3476.25
2019-02-23T10:16:23.180Z,3335.62
2019-02-23T10:17:23.227Z,3273.75
2019-02-23T10:18:23.156Z,3166.88
2019-02-23T10:19:23.150Z,3380.62
2019-02-23T10:20:23.133Z,3476.25
2019-02-23T10:21:23.125Z,3628.12
2019-02-23T10:22:23.126Z,3600.00
2019-02-23T10:23:23.140Z,3442.50
2019-02-23T10:24:23.097Z,3555.00
2019-02-23T10:25:23.102Z,3656.25
2019-02-23T10:26:23.065Z,3639.38
2019-02-23T10:27:23.059Z,3526.88
2019-02-23T10:28:23.118Z,3785.62
2019-02-23T10:29:23.037Z,3661.88
2019-02-23T10:30:23.026Z,3391.88
2019-02-23T10:31:23.034Z,3431.25
2019-02-23T10:32:23.005Z,3504.38
2019-02-23T10:33:22.994Z,3307.50
2019-02-23T10:34:23.014Z,3301.88
2019-02-23T10:35:22.985Z,3318.75
2019-02-23T10:36:22.972Z,3408.75
2019-02-23T10:37:22.963Z,3622.50
2019-02-23T10:38:22.948Z,3667.50
2019-02-23T10:39:22.926Z,3431.25
2019-02-23T10:40:22.973Z,3251.25
2019-02-23T10:41:22.903Z,3403.12
2019-02-23T10:42:22.893Z,3375.00
2019-02-23T10:43:22.889Z,3605.62
2019-02-23T10:44:22.879Z,3847.50
2019-02-23T10:45:22.861Z,3785.62
2019-02-23T10:46:23.084Z,3661.88
2019-02-23T10:47:22.837Z,3740.62
2019-02-23T10:48:22.827Z,3605.62
2019-02-23T10:49:22.849Z,3470.62
2019-02-23T10:50:22.806Z,3628.12
2019-02-23T10:51:22.795Z,4027.50
2019-02-23T10:52:22.828Z,3549.38
2019-02-23T10:53:32.391Z,3166.88
2019-02-23T10:54:23.755Z,2649.38
2019-02-23T10:55:22.751Z,3155.62
2019-02-23T10:56:22.744Z,3521.25
2019-02-23T10:57:22.727Z,3397.50
2019-02-23T10:58:22.780Z,3476.25
2019-02-23T10:59:22.706Z,3616.88
2019-02-23T11:00:22.719Z,3611.25
2019-02-23T11:01:22.687Z,3510.00
2019-02-23T11:02:22.676Z,3459.38
2019-02-23T11:03:22.672Z,3346.88
2019-02-23T11:04:22.746Z,3352.50
2019-02-23T11:05:22.652Z,3206.25
2019-02-23T11:06:22.659Z,3217.50
2019-02-23T11:07:22.614Z,3476.25
2019-02-23T11:08:22.645Z,3841.88
2019-02-23T11:09:22.618Z,3988.12
2019-02-23T11:10:22.588Z,3825.00
2019-02-23T11:11:22.574Z,2936.25
2019-02-23T11:12:22.573Z,3600.00
2019-02-23T11:13:22.550Z,3729.38
2019-02-23T11:14:22.580Z,3701.25
2019-02-23T11:15:22.539Z,3313.12
2019-02-23T11:16:22.521Z,3431.25
2019-02-23T11:17:22.522Z,3386.25
2019-02-23T11:18:22.498Z,3178.12
2019-02-23T11:19:22.486Z,2908.12
2019-02-23T11:20:22.517Z,3082.50
2019-02-23T11:21:22.471Z,3234.38
2019-02-23T11:22:22.456Z,3183.75
2019-02-23T11:23:22.459Z,3211.88
2019-02-23T11:24:22.546Z,3223.12
2019-02-23T11:25:22.423Z,3099.38
2019-02-23T11:26:22.451Z,3026.25
2019-02-23T11:27:22.401Z,3009.38
2019-02-23T11:28:22.404Z,3076.88
2019-02-23T11:29:22.400Z,3341.25
2019-02-23T11:30:22.373Z,3633.75
2019-02-23T11:31:22.368Z,3684.38
2019-02-23T11:32:22.383Z,2986.88
2019-02-23T11:33:22.336Z,2829.38
2019-02-23T11:34:22.329Z,2632.50
2019-02-23T11:35:22.369Z,3161.25
2019-02-23T11:36:22.316Z,3015.00
2019-02-23T11:37:22.293Z,3251.25
2019-02-23T11:38:22.288Z,3290.62
2019-02-23T11:39:22.274Z,3015.00
2019-02-23T11:40:23.575Z,2626.88
2019-02-23T11:41:22.291Z,3245.62
2019-02-23T11:42:22.240Z,3363.75
2019-02-23T11:43:22.236Z,3071.25
2019-02-23T11:44:22.217Z,3060.00
2019-02-23T11:45:22.209Z,3228.75
2019-02-23T11:46:22.196Z,3515.62
2019-02-23T11:47:22.219Z,3667.50
2019-02-23T11:48:22.175Z,3526.88
2019-02-23T11:49:22.191Z,3487.50
2019-02-23T11:50:22.151Z,3645.00
2019-02-23T11:51:22.141Z,3363.75
2019-02-23T11:52:22.134Z,3324.38
2019-02-23T11:53:22.186Z,3363.75
2019-02-23T11:54:22.112Z,3420.00
2019-02-23T11:55:22.121Z,3301.88
2019-02-23T11:56:22.152Z,3375.00
2019-02-23T11:57:22.076Z,3605.62
2019-02-23T11:58:22.108Z,3943.12
2019-02-23T11:59:22.235Z,3999.38
2019-02-23T12:00:22.046Z,3476.25
2019-02-23T12:01:22.046Z,3313.12
2019-02-23T12:02:22.020Z,3262.50
2019-02-23T12:03:22.023Z,3183.75
2019-02-23T12:04:21.998Z,3144.38
2019-02-23T12:05:22.024Z,3228.75
2019-02-23T12:06:21.978Z,3234.38
2019-02-23T12:07:21.970Z,3211.88
2019-02-23T12:08:21.955Z,3425.62
2019-02-23T12:09:21.981Z,3335.62
2019-02-23T12:10:21.938Z,3026.25
2019-02-23T12:11:21.921Z,3290.62
2019-02-23T12:12:21.914Z,2806.88
2019-02-23T12:13:21.983Z,3256.88
2019-02-23T12:14:21.889Z,3178.12
2019-02-23T12:15:21.914Z,3453.75
2019-02-23T12:16:21.866Z,3166.88
2019-02-23T12:17:21.902Z,3144.38
2019-02-23T12:18:21.846Z,3470.62
2019-02-23T12:19:21.850Z,3470.62
2019-02-23T12:20:21.829Z,3391.88
2019-02-23T12:21:21.815Z,3577.50
2019-02-23T12:22:21.804Z,3465.00
2019-02-23T12:23:21.831Z,3431.25
2019-02-23T12:24:21.783Z,3335.62
2019-02-23T12:25:21.780Z,3105.00
2019-02-23T12:26:21.772Z,3099.38
2019-02-23T12:27:21.751Z,2773.12
2019-02-23T12:28:21.738Z,2846.25
2019-02-23T12:29:21.764Z,3110.62
2019-02-23T12:30:21.725Z,3110.62
2019-02-23T12:31:21.708Z,3116.25
2019-02-23T12:32:21.711Z,3200.62
2019-02-23T12:33:21.682Z,3116.25
2019-02-23T12:34:21.670Z,3386.25
2019-02-23T12:35:21.701Z,3521.25
2019-02-23T12:36:21.649Z,3223.12
2019-02-23T12:37:21.640Z,3189.38
2019-02-23T12:38:21.667Z,3026.25
2019-02-23T12:39:21.636Z,3071.25
2019-02-23T12:40:21.639Z,3313.12
2019-02-23T12:41:21.593Z,3234.38
2019-02-23T12:42:21.582Z,2958.75
2019-02-23T12:43:21.571Z,2891.25